Terminal Aerodrome Forecast
Issued by NWS

Home | Current Version | Previous Version | Text Only | Print | Product List | Glossary On
Versions: 1 2 3 4 5 6 7 8 9 10 11 12 13 14 15 16 17 18
000
FTUS44 KJAN 212323
TAFGTR
TAF
KGTR 212323Z 2200/2224 15010KT P6SM -RA BKN008
     FM220200 15005KT P6SM SCT010
     FM220700 03003KT 5SM BR VCSH BKN005 OVC015
     FM220900 05003KT 2SM BR OVC005
     FM221500 36007KT 4SM BR OVC007
     FM222000 06006KT P6SM OVC015
     FM222300 08005KT P6SM OVC050=

USA.gov is the U.S. government's official web portal to all federal, state and local government web resources and services.